sensor_id;sensor_type;location;lat;lon;timestamp;P1;durP1;ratioP1;P2;durP2;ratioP2
48516;SDS011;34310;51.904;4.256;2023-11-21T00:00:45;7.88;;;5.30;;
48516;SDS011;34310;51.904;4.256;2023-11-21T00:03:11;8.20;;;5.18;;
48516;SDS011;34310;51.904;4.256;2023-11-21T00:05:38;8.55;;;4.85;;
48516;SDS011;34310;51.904;4.256;2023-11-21T00:08:04;8.05;;;4.90;;
48516;SDS011;34310;51.904;4.256;2023-11-21T00:10:31;6.85;;;4.70;;
48516;SDS011;34310;51.904;4.256;2023-11-21T00:12:57;6.82;;;4.50;;
48516;SDS011;34310;51.904;4.256;2023-11-21T00:15:24;8.02;;;4.78;;
48516;SDS011;34310;51.904;4.256;2023-11-21T00:17:50;7.80;;;4.75;;
48516;SDS011;34310;51.904;4.256;2023-11-21T00:20:17;7.75;;;4.80;;
48516;SDS011;34310;51.904;4.256;2023-11-21T00:22:43;7.97;;;4.75;;
48516;SDS011;34310;51.904;4.256;2023-11-21T00:25:10;6.63;;;4.10;;
48516;SDS011;34310;51.904;4.256;2023-11-21T00:27:37;9.20;;;4.32;;
48516;SDS011;34310;51.904;4.256;2023-11-21T00:30:04;5.05;;;4.05;;
48516;SDS011;34310;51.904;4.256;2023-11-21T00:32:31;5.38;;;4.63;;
48516;SDS011;34310;51.904;4.256;2023-11-21T00:34:57;5.95;;;4.55;;
48516;SDS011;34310;51.904;4.256;2023-11-21T00:37:24;5.70;;;4.30;;
48516;SDS011;34310;51.904;4.256;2023-11-21T00:39:50;7.03;;;4.30;;
48516;SDS011;34310;51.904;4.256;2023-11-21T00:42:16;5.68;;;4.30;;
48516;SDS011;34310;51.904;4.256;2023-11-21T00:44:43;6.57;;;4.18;;
48516;SDS011;34310;51.904;4.256;2023-11-21T00:47:09;6.30;;;4.32;;
48516;SDS011;34310;51.904;4.256;2023-11-21T00:49:36;6.00;;;3.92;;
48516;SDS011;34310;51.904;4.256;2023-11-21T00:52:03;6.20;;;3.95;;
48516;SDS011;34310;51.904;4.256;2023-11-21T00:54:29;7.32;;;4.25;;
48516;SDS011;34310;51.904;4.256;2023-11-21T00:56:58;6.10;;;3.78;;
48516;SDS011;34310;51.904;4.256;2023-11-21T00:59:25;6.55;;;3.75;;
48516;SDS011;34310;51.904;4.256;2023-11-21T01:01:51;5.97;;;3.70;;
48516;SDS011;34310;51.904;4.256;2023-11-21T01:04:18;6.43;;;3.85;;
48516;SDS011;34310;51.904;4.256;2023-11-21T01:06:44;5.15;;;3.70;;
48516;SDS011;34310;51.904;4.256;2023-11-21T01:09:11;6.03;;;3.65;;
48516;SDS011;34310;51.904;4.256;2023-11-21T01:11:37;6.20;;;4.25;;
48516;SDS011;34310;51.904;4.256;2023-11-21T01:14:04;6.75;;;4.15;;
48516;SDS011;34310;51.904;4.256;2023-11-21T01:16:31;7.22;;;3.83;;
48516;SDS011;34310;51.904;4.256;2023-11-21T01:18:57;5.97;;;3.42;;
48516;SDS011;34310;51.904;4.256;2023-11-21T01:21:24;5.80;;;3.47;;
48516;SDS011;34310;51.904;4.256;2023-11-21T01:23:51;5.70;;;3.38;;
48516;SDS011;34310;51.904;4.256;2023-11-21T01:26:18;6.03;;;3.95;;
48516;SDS011;34310;51.904;4.256;2023-11-21T01:28:44;6.30;;;3.83;;
48516;SDS011;34310;51.904;4.256;2023-11-21T01:31:11;4.95;;;3.50;;
48516;SDS011;34310;51.904;4.256;2023-11-21T01:33:37;5.00;;;3.20;;
48516;SDS011;34310;51.904;4.256;2023-11-21T01:36:04;4.80;;;3.22;;
48516;SDS011;34310;51.904;4.256;2023-11-21T01:38:30;4.78;;;3.08;;
48516;SDS011;34310;51.904;4.256;2023-11-21T01:40:57;6.22;;;3.50;;
48516;SDS011;34310;51.904;4.256;2023-11-21T01:43:23;5.28;;;3.20;;
48516;SDS011;34310;51.904;4.256;2023-11-21T01:45:50;4.75;;;3.28;;
48516;SDS011;34310;51.904;4.256;2023-11-21T01:48:16;5.93;;;3.47;;
48516;SDS011;34310;51.904;4.256;2023-11-21T01:50:44;6.38;;;3.50;;
48516;SDS011;34310;51.904;4.256;2023-11-21T01:53:11;5.35;;;3.20;;
48516;SDS011;34310;51.904;4.256;2023-11-21T01:55:38;6.13;;;3.67;;
48516;SDS011;34310;51.904;4.256;2023-11-21T01:58:07;4.47;;;3.30;;
48516;SDS011;34310;51.904;4.256;2023-11-21T02:00:34;6.82;;;3.72;;
48516;SDS011;34310;51.904;4.256;2023-11-21T02:03:01;3.90;;;2.92;;
48516;SDS011;34310;51.904;4.256;2023-11-21T02:05:28;4.60;;;3.15;;
48516;SDS011;34310;51.904;4.256;2023-11-21T02:07:54;5.57;;;3.38;;
48516;SDS011;34310;51.904;4.256;2023-11-21T02:10:21;4.70;;;3.20;;
48516;SDS011;34310;51.904;4.256;2023-11-21T02:12:47;4.85;;;3.17;;
48516;SDS011;34310;51.904;4.256;2023-11-21T02:15:15;4.80;;;3.30;;
48516;SDS011;34310;51.904;4.256;2023-11-21T02:17:42;4.82;;;3.03;;
48516;SDS011;34310;51.904;4.256;2023-11-21T02:20:11;4.80;;;3.00;;
48516;SDS011;34310;51.904;4.256;2023-11-21T02:22:38;4.25;;;2.78;;
48516;SDS011;34310;51.904;4.256;2023-11-21T02:25:06;3.53;;;2.80;;
48516;SDS011;34310;51.904;4.256;2023-11-21T02:27:33;3.80;;;2.75;;
48516;SDS011;34310;51.904;4.256;2023-11-21T02:30:00;4.32;;;2.63;;
48516;SDS011;34310;51.904;4.256;2023-11-21T02:32:26;3.63;;;2.80;;
48516;SDS011;34310;51.904;4.256;2023-11-21T02:34:53;5.70;;;3.22;;
48516;SDS011;34310;51.904;4.256;2023-11-21T02:37:19;4.40;;;3.10;;
48516;SDS011;34310;51.904;4.256;2023-11-21T02:39:46;4.82;;;3.22;;
48516;SDS011;34310;51.904;4.256;2023-11-21T02:42:12;5.43;;;2.80;;
48516;SDS011;34310;51.904;4.256;2023-11-21T02:44:39;3.53;;;2.70;;
48516;SDS011;34310;51.904;4.256;2023-11-21T02:47:05;3.88;;;2.85;;
48516;SDS011;34310;51.904;4.256;2023-11-21T02:49:32;3.40;;;2.40;;
48516;SDS011;34310;51.904;4.256;2023-11-21T02:51:58;3.22;;;2.80;;
48516;SDS011;34310;51.904;4.256;2023-11-21T02:54:25;3.85;;;2.72;;
48516;SDS011;34310;51.904;4.256;2023-11-21T02:56:51;3.75;;;2.65;;
48516;SDS011;34310;51.904;4.256;2023-11-21T02:59:18;3.67;;;2.60;;
48516;SDS011;34310;51.904;4.256;2023-11-21T03:01:45;2.88;;;2.40;;
48516;SDS011;34310;51.904;4.256;2023-11-21T03:04:12;2.97;;;2.58;;
48516;SDS011;34310;51.904;4.256;2023-11-21T03:06:38;4.68;;;2.70;;
48516;SDS011;34310;51.904;4.256;2023-11-21T03:09:05;4.03;;;2.60;;
48516;SDS011;34310;51.904;4.256;2023-11-21T03:11:31;3.67;;;2.58;;
48516;SDS011;34310;51.904;4.256;2023-11-21T03:13:57;3.75;;;2.20;;
48516;SDS011;34310;51.904;4.256;2023-11-21T03:16:24;3.88;;;2.65;;
48516;SDS011;34310;51.904;4.256;2023-11-21T03:18:50;3.60;;;2.67;;
48516;SDS011;34310;51.904;4.256;2023-11-21T03:21:17;4.28;;;2.70;;
48516;SDS011;34310;51.904;4.256;2023-11-21T03:23:44;3.38;;;2.65;;
48516;SDS011;34310;51.904;4.256;2023-11-21T03:26:13;4.28;;;2.53;;
48516;SDS011;34310;51.904;4.256;2023-11-21T03:28:40;4.07;;;2.53;;
48516;SDS011;34310;51.904;4.256;2023-11-21T03:31:06;3.47;;;2.50;;
48516;SDS011;34310;51.904;4.256;2023-11-21T03:33:33;4.93;;;2.67;;
48516;SDS011;34310;51.904;4.256;2023-11-21T03:35:59;3.42;;;2.30;;
48516;SDS011;34310;51.904;4.256;2023-11-21T03:38:26;3.60;;;2.53;;
48516;SDS011;34310;51.904;4.256;2023-11-21T03:40:52;2.90;;;2.53;;
48516;SDS011;34310;51.904;4.256;2023-11-21T03:43:19;3.55;;;2.60;;
48516;SDS011;34310;51.904;4.256;2023-11-21T03:45:45;3.55;;;2.63;;
48516;SDS011;34310;51.904;4.256;2023-11-21T03:48:12;3.17;;;2.17;;
48516;SDS011;34310;51.904;4.256;2023-11-21T03:50:38;3.75;;;2.63;;
48516;SDS011;34310;51.904;4.256;2023-11-21T03:53:05;4.43;;;2.70;;
48516;SDS011;34310;51.904;4.256;2023-11-21T03:55:31;3.13;;;2.45;;
48516;SDS011;34310;51.904;4.256;2023-11-21T03:57:58;3.47;;;2.40;;
48516;SDS011;34310;51.904;4.256;2023-11-21T04:00:25;3.35;;;2.40;;
48516;SDS011;34310;51.904;4.256;2023-11-21T04:02:52;2.40;;;2.17;;
48516;SDS011;34310;51.904;4.256;2023-11-21T04:05:19;2.63;;;2.40;;
48516;SDS011;34310;51.904;4.256;2023-11-21T04:07:47;4.70;;;2.50;;
48516;SDS011;34310;51.904;4.256;2023-11-21T04:10:15;3.40;;;2.42;;
48516;SDS011;34310;51.904;4.256;2023-11-21T04:12:41;3.38;;;2.55;;
48516;SDS011;34310;51.904;4.256;2023-11-21T04:15:08;3.10;;;2.45;;
48516;SDS011;34310;51.904;4.256;2023-11-21T04:17:35;2.90;;;2.38;;
48516;SDS011;34310;51.904;4.256;2023-11-21T04:20:03;3.63;;;2.55;;
48516;SDS011;34310;51.904;4.256;2023-11-21T04:22:30;3.60;;;2.50;;
48516;SDS011;34310;51.904;4.256;2023-11-21T04:24:57;3.00;;;2.40;;
48516;SDS011;34310;51.904;4.256;2023-11-21T04:27:23;3.85;;;2.47;;
48516;SDS011;34310;51.904;4.256;2023-11-21T04:29:49;3.17;;;2.40;;
48516;SDS011;34310;51.904;4.256;2023-11-21T04:32:16;4.60;;;2.70;;
48516;SDS011;34310;51.904;4.256;2023-11-21T04:34:42;2.47;;;2.28;;
48516;SDS011;34310;51.904;4.256;2023-11-21T04:37:09;2.85;;;2.33;;
48516;SDS011;34310;51.904;4.256;2023-11-21T04:39:35;2.60;;;2.40;;
48516;SDS011;34310;51.904;4.256;2023-11-21T04:42:02;2.45;;;2.22;;
48516;SDS011;34310;51.904;4.256;2023-11-21T04:44:28;2.95;;;2.63;;
48516;SDS011;34310;51.904;4.256;2023-11-21T04:46:55;2.97;;;2.30;;
48516;SDS011;34310;51.904;4.256;2023-11-21T04:49:21;2.92;;;2.55;;
48516;SDS011;34310;51.904;4.256;2023-11-21T04:51:48;2.83;;;2.50;;
48516;SDS011;34310;51.904;4.256;2023-11-21T04:54:14;2.60;;;2.20;;
48516;SDS011;34310;51.904;4.256;2023-11-21T04:56:41;4.60;;;2.72;;
48516;SDS011;34310;51.904;4.256;2023-11-21T04:59:07;2.60;;;2.22;;
48516;SDS011;34310;51.904;4.256;2023-11-21T05:01:34;2.42;;;2.20;;
48516;SDS011;34310;51.904;4.256;2023-11-21T05:04:00;2.50;;;2.28;;
48516;SDS011;34310;51.904;4.256;2023-11-21T05:06:27;2.42;;;2.17;;
48516;SDS011;34310;51.904;4.256;2023-11-21T05:08:53;2.63;;;2.42;;
48516;SDS011;34310;51.904;4.256;2023-11-21T05:11:24;2.58;;;2.38;;
48516;SDS011;34310;51.904;4.256;2023-11-21T05:13:53;2.72;;;2.42;;
48516;SDS011;34310;51.904;4.256;2023-11-21T05:16:20;3.53;;;2.50;;
48516;SDS011;34310;51.904;4.256;2023-11-21T05:18:46;2.28;;;2.05;;
48516;SDS011;34310;51.904;4.256;2023-11-21T05:21:13;2.78;;;2.42;;
48516;SDS011;34310;51.904;4.256;2023-11-21T05:23:39;2.30;;;2.10;;
48516;SDS011;34310;51.904;4.256;2023-11-21T05:26:06;3.35;;;2.28;;
48516;SDS011;34310;51.904;4.256;2023-11-21T05:28:33;2.75;;;2.20;;
48516;SDS011;34310;51.904;4.256;2023-11-21T05:30:59;2.40;;;2.20;;
48516;SDS011;34310;51.904;4.256;2023-11-21T05:33:41;3.15;;;2.30;;
48516;SDS011;34310;51.904;4.256;2023-11-21T05:36:08;3.22;;;2.70;;
48516;SDS011;34310;51.904;4.256;2023-11-21T05:38:35;2.70;;;2.35;;
48516;SDS011;34310;51.904;4.256;2023-11-21T05:41:02;2.90;;;2.17;;
48516;SDS011;34310;51.904;4.256;2023-11-21T05:43:29;3.30;;;2.55;;
48516;SDS011;34310;51.904;4.256;2023-11-21T05:45:56;2.70;;;2.33;;
48516;SDS011;34310;51.904;4.256;2023-11-21T05:48:23;2.72;;;2.22;;
48516;SDS011;34310;51.904;4.256;2023-11-21T05:50:49;3.35;;;2.42;;
48516;SDS011;34310;51.904;4.256;2023-11-21T05:53:16;3.15;;;2.42;;
48516;SDS011;34310;51.904;4.256;2023-11-21T05:55:42;3.45;;;2.67;;
48516;SDS011;34310;51.904;4.256;2023-11-21T05:58:09;2.72;;;2.50;;
48516;SDS011;34310;51.904;4.256;2023-11-21T06:00:35;2.65;;;2.45;;
48516;SDS011;34310;51.904;4.256;2023-11-21T06:03:02;2.35;;;2.15;;
48516;SDS011;34310;51.904;4.256;2023-11-21T06:05:29;2.60;;;2.40;;
48516;SDS011;34310;51.904;4.256;2023-11-21T06:07:55;2.55;;;2.35;;
48516;SDS011;34310;51.904;4.256;2023-11-21T06:10:22;2.78;;;2.33;;
48516;SDS011;34310;51.904;4.256;2023-11-21T06:12:49;2.95;;;2.65;;
48516;SDS011;34310;51.904;4.256;2023-11-21T06:15:16;3.10;;;2.80;;
48516;SDS011;34310;51.904;4.256;2023-11-21T06:17:42;3.33;;;2.80;;
48516;SDS011;34310;51.904;4.256;2023-11-21T06:20:10;3.47;;;2.70;;
48516;SDS011;34310;51.904;4.256;2023-11-21T06:22:37;3.33;;;3.03;;
48516;SDS011;34310;51.904;4.256;2023-11-21T06:25:05;4.05;;;2.80;;
48516;SDS011;34310;51.904;4.256;2023-11-21T06:27:32;3.58;;;3.22;;
48516;SDS011;34310;51.904;4.256;2023-11-21T06:29:59;4.03;;;3.33;;
48516;SDS011;34310;51.904;4.256;2023-11-21T06:32:26;10.00;;;3.53;;
48516;SDS011;34310;51.904;4.256;2023-11-21T06:34:52;5.60;;;4.10;;
48516;SDS011;34310;51.904;4.256;2023-11-21T06:37:19;6.97;;;4.05;;
48516;SDS011;34310;51.904;4.256;2023-11-21T06:39:46;6.05;;;3.92;;
48516;SDS011;34310;51.904;4.256;2023-11-21T06:42:12;8.77;;;4.32;;
48516;SDS011;34310;51.904;4.256;2023-11-21T06:44:39;9.75;;;4.60;;
48516;SDS011;34310;51.904;4.256;2023-11-21T06:47:05;8.32;;;4.40;;
48516;SDS011;34310;51.904;4.256;2023-11-21T06:49:32;8.30;;;4.32;;
48516;SDS011;34310;51.904;4.256;2023-11-21T06:51:59;8.68;;;4.75;;
48516;SDS011;34310;51.904;4.256;2023-11-21T06:54:26;8.55;;;4.93;;
48516;SDS011;34310;51.904;4.256;2023-11-21T06:56:52;9.18;;;4.82;;
48516;SDS011;34310;51.904;4.256;2023-11-21T06:59:19;8.38;;;4.57;;
48516;SDS011;34310;51.904;4.256;2023-11-21T07:01:45;10.68;;;5.00;;
48516;SDS011;34310;51.904;4.256;2023-11-21T07:04:12;9.55;;;5.05;;
48516;SDS011;34310;51.904;4.256;2023-11-21T07:06:38;8.05;;;4.45;;
48516;SDS011;34310;51.904;4.256;2023-11-21T07:09:05;6.25;;;4.60;;
48516;SDS011;34310;51.904;4.256;2023-11-21T07:11:31;10.02;;;5.15;;
48516;SDS011;34310;51.904;4.256;2023-11-21T07:13:57;8.52;;;5.10;;
48516;SDS011;34310;51.904;4.256;2023-11-21T07:16:24;8.77;;;4.93;;
48516;SDS011;34310;51.904;4.256;2023-11-21T07:18:51;9.10;;;5.00;;
48516;SDS011;34310;51.904;4.256;2023-11-21T07:21:17;8.57;;;4.70;;
48516;SDS011;34310;51.904;4.256;2023-11-21T07:23:43;9.20;;;5.13;;
48516;SDS011;34310;51.904;4.256;2023-11-21T07:26:10;8.70;;;4.72;;
48516;SDS011;34310;51.904;4.256;2023-11-21T07:28:37;8.70;;;5.07;;
48516;SDS011;34310;51.904;4.256;2023-11-21T07:31:03;7.55;;;4.82;;
48516;SDS011;34310;51.904;4.256;2023-11-21T07:33:30;8.15;;;4.90;;
48516;SDS011;34310;51.904;4.256;2023-11-21T07:35:56;9.00;;;4.90;;
48516;SDS011;34310;51.904;4.256;2023-11-21T07:38:23;7.47;;;4.60;;
48516;SDS011;34310;51.904;4.256;2023-11-21T07:40:49;9.35;;;4.93;;
48516;SDS011;34310;51.904;4.256;2023-11-21T07:43:16;8.45;;;4.35;;
48516;SDS011;34310;51.904;4.256;2023-11-21T07:45:42;8.50;;;4.75;;
48516;SDS011;34310;51.904;4.256;2023-11-21T07:48:12;6.93;;;4.40;;
48516;SDS011;34310;51.904;4.256;2023-11-21T07:50:39;6.88;;;4.40;;
48516;SDS011;34310;51.904;4.256;2023-11-21T07:53:05;7.88;;;4.65;;
48516;SDS011;34310;51.904;4.256;2023-11-21T07:55:32;7.07;;;4.65;;
48516;SDS011;34310;51.904;4.256;2023-11-21T07:57:58;7.82;;;4.43;;
48516;SDS011;34310;51.904;4.256;2023-11-21T08:00:25;8.48;;;4.57;;
48516;SDS011;34310;51.904;4.256;2023-11-21T08:02:51;6.07;;;4.10;;
48516;SDS011;34310;51.904;4.256;2023-11-21T08:05:18;7.45;;;4.15;;
48516;SDS011;34310;51.904;4.256;2023-11-21T08:07:57;6.22;;;3.92;;
48516;SDS011;34310;51.904;4.256;2023-11-21T08:10:23;8.73;;;4.22;;
48516;SDS011;34310;51.904;4.256;2023-11-21T08:12:50;7.72;;;4.80;;
48516;SDS011;34310;51.904;4.256;2023-11-21T08:15:16;8.98;;;4.00;;
48516;SDS011;34310;51.904;4.256;2023-11-21T08:17:43;6.68;;;4.20;;
48516;SDS011;34310;51.904;4.256;2023-11-21T08:20:10;5.93;;;3.70;;
48516;SDS011;34310;51.904;4.256;2023-11-21T08:22:37;7.68;;;4.07;;
48516;SDS011;34310;51.904;4.256;2023-11-21T08:25:03;5.05;;;3.30;;
48516;SDS011;34310;51.904;4.256;2023-11-21T08:27:30;6.70;;;3.67;;
48516;SDS011;34310;51.904;4.256;2023-11-21T08:29:57;6.22;;;3.17;;
48516;SDS011;34310;51.904;4.256;2023-11-21T08:32:23;7.05;;;3.40;;
48516;SDS011;34310;51.904;4.256;2023-11-21T08:34:50;5.40;;;3.53;;
48516;SDS011;34310;51.904;4.256;2023-11-21T08:37:18;6.88;;;3.42;;
48516;SDS011;34310;51.904;4.256;2023-11-21T08:39:44;5.90;;;3.22;;
48516;SDS011;34310;51.904;4.256;2023-11-21T08:42:11;6.93;;;3.33;;
48516;SDS011;34310;51.904;4.256;2023-11-21T08:44:37;5.25;;;3.00;;
48516;SDS011;34310;51.904;4.256;2023-11-21T08:47:04;5.93;;;3.13;;
48516;SDS011;34310;51.904;4.256;2023-11-21T08:49:33;5.28;;;3.33;;
48516;SDS011;34310;51.904;4.256;2023-11-21T08:52:00;5.00;;;3.05;;
48516;SDS011;34310;51.904;4.256;2023-11-21T08:54:26;5.45;;;2.88;;
48516;SDS011;34310;51.904;4.256;2023-11-21T08:56:53;5.05;;;2.90;;
48516;SDS011;34310;51.904;4.256;2023-11-21T08:59:20;5.05;;;2.92;;
48516;SDS011;34310;51.904;4.256;2023-11-21T09:01:47;5.03;;;2.38;;
48516;SDS011;34310;51.904;4.256;2023-11-21T09:04:13;5.05;;;2.78;;
48516;SDS011;34310;51.904;4.256;2023-11-21T09:06:40;3.72;;;2.45;;
48516;SDS011;34310;51.904;4.256;2023-11-21T09:09:06;6.60;;;2.80;;
48516;SDS011;34310;51.904;4.256;2023-11-21T09:11:33;4.78;;;2.70;;
48516;SDS011;34310;51.904;4.256;2023-11-21T09:13:59;4.72;;;2.40;;
48516;SDS011;34310;51.904;4.256;2023-11-21T09:16:26;5.97;;;2.63;;
48516;SDS011;34310;51.904;4.256;2023-11-21T09:18:53;3.42;;;2.17;;
48516;SDS011;34310;51.904;4.256;2023-11-21T09:21:19;4.90;;;2.47;;
48516;SDS011;34310;51.904;4.256;2023-11-21T09:23:46;5.75;;;2.80;;
48516;SDS011;34310;51.904;4.256;2023-11-21T09:26:12;5.68;;;2.53;;
48516;SDS011;34310;51.904;4.256;2023-11-21T09:28:39;5.75;;;2.72;;
48516;SDS011;34310;51.904;4.256;2023-11-21T09:31:05;3.85;;;2.20;;
48516;SDS011;34310;51.904;4.256;2023-11-21T09:33:32;4.00;;;2.22;;
48516;SDS011;34310;51.904;4.256;2023-11-21T09:35:58;3.97;;;2.00;;
48516;SDS011;34310;51.904;4.256;2023-11-21T09:38:25;3.35;;;2.08;;
48516;SDS011;34310;51.904;4.256;2023-11-21T09:40:51;4.97;;;2.40;;
48516;SDS011;34310;51.904;4.256;2023-11-21T09:43:18;4.55;;;2.22;;
48516;SDS011;34310;51.904;4.256;2023-11-21T09:45:46;5.38;;;2.22;;
48516;SDS011;34310;51.904;4.256;2023-11-21T09:48:14;5.35;;;2.30;;
48516;SDS011;34310;51.904;4.256;2023-11-21T09:50:41;4.88;;;2.53;;
48516;SDS011;34310;51.904;4.256;2023-11-21T09:55:45;4.13;;;2.33;;
48516;SDS011;34310;51.904;4.256;2023-11-21T09:58:14;4.03;;;2.22;;
48516;SDS011;34310;51.904;4.256;2023-11-21T10:00:41;3.38;;;1.95;;
48516;SDS011;34310;51.904;4.256;2023-11-21T10:03:12;4.45;;;2.15;;
48516;SDS011;34310;51.904;4.256;2023-11-21T10:05:40;4.20;;;1.92;;
48516;SDS011;34310;51.904;4.256;2023-11-21T10:08:08;5.20;;;2.20;;
48516;SDS011;34310;51.904;4.256;2023-11-21T10:10:36;4.10;;;2.00;;
48516;SDS011;34310;51.904;4.256;2023-11-21T10:13:03;4.93;;;2.08;;
48516;SDS011;34310;51.904;4.256;2023-11-21T10:15:31;3.78;;;2.13;;
48516;SDS011;34310;51.904;4.256;2023-11-21T10:18:00;3.80;;;2.13;;
48516;SDS011;34310;51.904;4.256;2023-11-21T10:20:29;2.80;;;1.85;;
48516;SDS011;34310;51.904;4.256;2023-11-21T10:22:57;3.30;;;2.13;;
48516;SDS011;34310;51.904;4.256;2023-11-21T10:25:24;3.60;;;2.33;;
48516;SDS011;34310;51.904;4.256;2023-11-21T10:27:55;4.05;;;2.20;;
48516;SDS011;34310;51.904;4.256;2023-11-21T10:30:27;5.78;;;2.00;;
48516;SDS011;34310;51.904;4.256;2023-11-21T10:33:00;2.90;;;1.83;;
48516;SDS011;34310;51.904;4.256;2023-11-21T10:35:38;2.97;;;1.90;;
48516;SDS011;34310;51.904;4.256;2023-11-21T10:38:05;3.17;;;1.88;;
48516;SDS011;34310;51.904;4.256;2023-11-21T10:40:32;2.70;;;1.77;;
48516;SDS011;34310;51.904;4.256;2023-11-21T10:43:08;4.95;;;2.15;;
48516;SDS011;34310;51.904;4.256;2023-11-21T10:45:39;3.33;;;1.80;;
48516;SDS011;34310;51.904;4.256;2023-11-21T10:48:06;2.80;;;1.88;;
48516;SDS011;34310;51.904;4.256;2023-11-21T10:50:34;1.65;;;1.55;;
48516;SDS011;34310;51.904;4.256;2023-11-21T10:53:01;2.92;;;1.88;;
48516;SDS011;34310;51.904;4.256;2023-11-21T10:55:29;2.10;;;1.90;;
48516;SDS011;34310;51.904;4.256;2023-11-21T10:57:58;2.35;;;1.63;;
48516;SDS011;34310;51.904;4.256;2023-11-21T11:00:26;1.80;;;1.63;;
48516;SDS011;34310;51.904;4.256;2023-11-21T11:02:53;2.75;;;1.60;;
48516;SDS011;34310;51.904;4.256;2023-11-21T11:05:21;2.00;;;1.58;;
48516;SDS011;34310;51.904;4.256;2023-11-21T11:08:03;2.05;;;1.70;;
48516;SDS011;34310;51.904;4.256;2023-11-21T11:10:32;2.45;;;1.90;;
48516;SDS011;34310;51.904;4.256;2023-11-21T11:12:58;3.47;;;2.03;;
48516;SDS011;34310;51.904;4.256;2023-11-21T11:15:25;2.35;;;1.60;;
48516;SDS011;34310;51.904;4.256;2023-11-21T11:17:53;3.33;;;1.70;;
48516;SDS011;34310;51.904;4.256;2023-11-21T11:20:20;1.75;;;1.50;;
48516;SDS011;34310;51.904;4.256;2023-11-21T11:28:35;1.75;;;1.50;;
48516;SDS011;34310;51.904;4.256;2023-11-21T11:31:14;2.75;;;1.45;;
48516;SDS011;34310;51.904;4.256;2023-11-21T11:34:08;2.33;;;1.73;;
48516;SDS011;34310;51.904;4.256;2023-11-21T11:36:55;2.33;;;1.70;;
48516;SDS011;34310;51.904;4.256;2023-11-21T11:42:05;1.95;;;1.52;;
48516;SDS011;34310;51.904;4.256;2023-11-21T11:47:12;2.42;;;1.88;;
48516;SDS011;34310;51.904;4.256;2023-11-21T11:52:36;3.65;;;1.92;;
48516;SDS011;34310;51.904;4.256;2023-11-21T11:55:11;2.28;;;1.80;;
48516;SDS011;34310;51.904;4.256;2023-11-21T11:57:40;2.38;;;1.88;;
48516;SDS011;34310;51.904;4.256;2023-11-21T12:02:34;2.28;;;1.88;;
48516;SDS011;34310;51.904;4.256;2023-11-21T12:05:01;1.98;;;1.60;;
48516;SDS011;34310;51.904;4.256;2023-11-21T12:07:42;1.85;;;1.67;;
48516;SDS011;34310;51.904;4.256;2023-11-21T12:10:17;2.75;;;1.90;;
48516;SDS011;34310;51.904;4.256;2023-11-21T12:12:45;2.97;;;2.22;;
48516;SDS011;34310;51.904;4.256;2023-11-21T12:15:16;2.13;;;1.90;;
48516;SDS011;34310;51.904;4.256;2023-11-21T12:17:43;2.20;;;2.00;;
48516;SDS011;34310;51.904;4.256;2023-11-21T12:20:13;2.45;;;1.90;;
48516;SDS011;34310;51.904;4.256;2023-11-21T12:22:41;2.30;;;1.80;;
48516;SDS011;34310;51.904;4.256;2023-11-21T12:25:10;2.72;;;2.28;;
48516;SDS011;34310;51.904;4.256;2023-11-21T12:27:36;2.22;;;1.95;;
48516;SDS011;34310;51.904;4.256;2023-11-21T12:30:03;2.65;;;1.92;;
48516;SDS011;34310;51.904;4.256;2023-11-21T12:32:29;3.83;;;2.20;;
48516;SDS011;34310;51.904;4.256;2023-11-21T12:34:56;2.67;;;2.20;;
48516;SDS011;34310;51.904;4.256;2023-11-21T12:37:22;2.90;;;2.10;;
48516;SDS011;34310;51.904;4.256;2023-11-21T12:39:49;2.55;;;2.20;;
48516;SDS011;34310;51.904;4.256;2023-11-21T12:42:16;2.90;;;2.30;;
48516;SDS011;34310;51.904;4.256;2023-11-21T12:44:42;3.10;;;2.17;;
48516;SDS011;34310;51.904;4.256;2023-11-21T12:47:15;2.78;;;2.10;;
48516;SDS011;34310;51.904;4.256;2023-11-21T12:49:43;2.97;;;2.47;;
48516;SDS011;34310;51.904;4.256;2023-11-21T12:52:09;3.53;;;2.63;;
48516;SDS011;34310;51.904;4.256;2023-11-21T12:54:36;3.17;;;2.20;;
48516;SDS011;34310;51.904;4.256;2023-11-21T12:57:03;3.78;;;2.58;;
48516;SDS011;34310;51.904;4.256;2023-11-21T12:59:31;3.88;;;2.50;;
48516;SDS011;34310;51.904;4.256;2023-11-21T13:01:57;4.82;;;2.80;;
48516;SDS011;34310;51.904;4.256;2023-11-21T13:04:29;3.97;;;2.80;;
48516;SDS011;34310;51.904;4.256;2023-11-21T13:07:02;3.47;;;2.85;;
48516;SDS011;34310;51.904;4.256;2023-11-21T13:09:29;3.42;;;2.58;;
48516;SDS011;34310;51.904;4.256;2023-11-21T13:12:00;5.97;;;3.17;;
48516;SDS011;34310;51.904;4.256;2023-11-21T13:14:30;6.93;;;3.60;;
48516;SDS011;34310;51.904;4.256;2023-11-21T13:16:57;8.73;;;3.33;;
48516;SDS011;34310;51.904;4.256;2023-11-21T13:19:23;4.22;;;3.30;;
48516;SDS011;34310;51.904;4.256;2023-11-21T13:21:50;3.53;;;3.13;;
48516;SDS011;34310;51.904;4.256;2023-11-21T13:24:16;4.47;;;3.28;;
48516;SDS011;34310;51.904;4.256;2023-11-21T13:26:43;6.75;;;3.17;;
48516;SDS011;34310;51.904;4.256;2023-11-21T13:29:09;5.57;;;3.55;;
48516;SDS011;34310;51.904;4.256;2023-11-21T13:31:36;4.82;;;3.17;;
48516;SDS011;34310;51.904;4.256;2023-11-21T13:34:02;3.20;;;2.78;;
48516;SDS011;34310;51.904;4.256;2023-11-21T13:36:29;4.07;;;3.30;;
48516;SDS011;34310;51.904;4.256;2023-11-21T13:38:55;4.90;;;3.05;;
48516;SDS011;34310;51.904;4.256;2023-11-21T13:41:22;4.88;;;3.08;;
48516;SDS011;34310;51.904;4.256;2023-11-21T13:43:48;3.97;;;2.90;;
48516;SDS011;34310;51.904;4.256;2023-11-21T13:46:17;3.10;;;2.80;;
48516;SDS011;34310;51.904;4.256;2023-11-21T13:48:43;3.35;;;2.85;;
48516;SDS011;34310;51.904;4.256;2023-11-21T13:51:10;3.80;;;3.00;;
48516;SDS011;34310;51.904;4.256;2023-11-21T13:53:37;2.83;;;2.60;;
48516;SDS011;34310;51.904;4.256;2023-11-21T13:56:03;2.85;;;2.58;;
48516;SDS011;34310;51.904;4.256;2023-11-21T13:58:30;4.18;;;2.72;;
48516;SDS011;34310;51.904;4.256;2023-11-21T14:00:56;4.22;;;2.97;;
48516;SDS011;34310;51.904;4.256;2023-11-21T14:03:23;3.15;;;2.58;;
48516;SDS011;34310;51.904;4.256;2023-11-21T14:05:50;4.95;;;2.80;;
48516;SDS011;34310;51.904;4.256;2023-11-21T14:08:18;3.92;;;3.00;;
48516;SDS011;34310;51.904;4.256;2023-11-21T14:10:45;3.13;;;2.53;;
48516;SDS011;34310;51.904;4.256;2023-11-21T14:13:12;3.28;;;2.75;;
48516;SDS011;34310;51.904;4.256;2023-11-21T14:15:39;3.55;;;2.63;;
48516;SDS011;34310;51.904;4.256;2023-11-21T14:18:09;3.17;;;2.78;;
48516;SDS011;34310;51.904;4.256;2023-11-21T14:20:36;5.57;;;3.03;;
48516;SDS011;34310;51.904;4.256;2023-11-21T14:23:04;4.50;;;2.80;;
48516;SDS011;34310;51.904;4.256;2023-11-21T14:25:31;4.25;;;3.03;;
48516;SDS011;34310;51.904;4.256;2023-11-21T14:27:57;4.68;;;2.38;;
48516;SDS011;34310;51.904;4.256;2023-11-21T14:30:24;4.45;;;2.67;;
48516;SDS011;34310;51.904;4.256;2023-11-21T14:32:50;3.08;;;2.78;;
48516;SDS011;34310;51.904;4.256;2023-11-21T14:35:17;6.45;;;2.80;;
48516;SDS011;34310;51.904;4.256;2023-11-21T14:37:43;4.03;;;2.80;;
48516;SDS011;34310;51.904;4.256;2023-11-21T14:40:10;3.65;;;2.95;;
48516;SDS011;34310;51.904;4.256;2023-11-21T14:42:37;3.13;;;2.60;;
48516;SDS011;34310;51.904;4.256;2023-11-21T14:45:04;6.05;;;2.60;;
48516;SDS011;34310;51.904;4.256;2023-11-21T14:47:30;3.95;;;2.63;;
48516;SDS011;34310;51.904;4.256;2023-11-21T14:49:57;3.10;;;2.80;;
48516;SDS011;34310;51.904;4.256;2023-11-21T14:52:23;2.80;;;2.50;;
48516;SDS011;34310;51.904;4.256;2023-11-21T14:54:50;3.00;;;2.70;;
48516;SDS011;34310;51.904;4.256;2023-11-21T14:57:16;4.43;;;2.70;;
48516;SDS011;34310;51.904;4.256;2023-11-21T14:59:44;3.25;;;2.80;;
48516;SDS011;34310;51.904;4.256;2023-11-21T15:02:14;3.78;;;3.10;;
48516;SDS011;34310;51.904;4.256;2023-11-21T15:04:41;3.70;;;2.92;;
48516;SDS011;34310;51.904;4.256;2023-11-21T15:07:09;3.20;;;2.90;;